sensor_id;sensor_type;location;lat;lon;timestamp;pressure;altitude;pressure_sealevel;temperature;humidity
66021;BME280;52789;59.980;30.346;2023-01-05T00:01:15;101186.81;;;-8.16;94.20
66021;BME280;52789;59.980;30.346;2023-01-05T00:03:40;101185.13;;;-8.17;95.08
66021;BME280;52789;59.980;30.346;2023-01-05T00:06:11;101179.88;;;-8.14;94.84
66021;BME280;52789;59.980;30.346;2023-01-05T00:08:38;101169.47;;;-8.11;94.79
66021;BME280;52789;59.980;30.346;2023-01-05T00:11:14;101168.50;;;-8.05;94.67
66021;BME280;52789;59.980;30.346;2023-01-05T00:14:01;101170.06;;;-7.98;94.79
66021;BME280;52789;59.980;30.346;2023-01-05T00:16:47;101163.19;;;-7.99;94.74
66021;BME280;52789;59.980;30.346;2023-01-05T00:19:31;101177.97;;;-8.04;95.20
66021;BME280;52789;59.980;30.346;2023-01-05T00:22:18;101172.94;;;-8.12;95.07
66021;BME280;52789;59.980;30.346;2023-01-05T00:27:21;101163.72;;;-8.22;95.71
66021;BME280;52789;59.980;30.346;2023-01-05T00:29:46;101177.38;;;-8.17;95.69
66021;BME280;52789;59.980;30.346;2023-01-05T00:32:12;101177.41;;;-8.19;96.24
66021;BME280;52789;59.980;30.346;2023-01-05T00:34:37;101173.16;;;-8.21;95.95
66021;BME280;52789;59.980;30.346;2023-01-05T00:37:03;101164.66;;;-8.26;96.11
66021;BME280;52789;59.980;30.346;2023-01-05T00:39:28;101168.06;;;-8.24;96.28
66021;BME280;52789;59.980;30.346;2023-01-05T00:41:54;101167.03;;;-8.17;96.69
66021;BME280;52789;59.980;30.346;2023-01-05T00:44:19;101169.13;;;-7.96;96.37
66021;BME280;52789;59.980;30.346;2023-01-05T00:46:44;101158.56;;;-7.87;95.85
66021;BME280;52789;59.980;30.346;2023-01-05T00:49:10;101158.38;;;-7.77;96.23
66021;BME280;52789;59.980;30.346;2023-01-05T00:51:35;101146.16;;;-7.72;95.74
66021;BME280;52789;59.980;30.346;2023-01-05T00:54:01;101156.34;;;-7.66;95.07
66021;BME280;52789;59.980;30.346;2023-01-05T00:56:27;101160.69;;;-7.67;95.29
66021;BME280;52789;59.980;30.346;2023-01-05T00:58:52;101137.75;;;-7.81;95.96
66021;BME280;52789;59.980;30.346;2023-01-05T01:01:19;101159.03;;;-7.69;95.95
66021;BME280;52789;59.980;30.346;2023-01-05T01:03:45;101157.50;;;-7.78;95.66
66021;BME280;52789;59.980;30.346;2023-01-05T01:06:11;101151.69;;;-7.88;95.77
66021;BME280;52789;59.980;30.346;2023-01-05T01:08:37;101158.72;;;-7.93;96.12
66021;BME280;52789;59.980;30.346;2023-01-05T01:11:05;101134.25;;;-8.15;96.44
66021;BME280;52789;59.980;30.346;2023-01-05T01:13:31;101143.00;;;-8.21;96.32
66021;BME280;52789;59.980;30.346;2023-01-05T01:15:57;101148.56;;;-8.36;96.43
66021;BME280;52789;59.980;30.346;2023-01-05T01:18:23;101137.69;;;-8.52;97.04
66021;BME280;52789;59.980;30.346;2023-01-05T01:20:48;101117.59;;;-8.78;97.65
66021;BME280;52789;59.980;30.346;2023-01-05T01:23:14;101155.91;;;-8.58;97.32
66021;BME280;52789;59.980;30.346;2023-01-05T01:25:39;101149.16;;;-8.63;97.76
66021;BME280;52789;59.980;30.346;2023-01-05T01:28:05;101157.81;;;-8.67;97.81
66021;BME280;52789;59.980;30.346;2023-01-05T01:30:30;101154.50;;;-8.74;97.88
66021;BME280;52789;59.980;30.346;2023-01-05T01:32:56;101150.16;;;-8.72;98.29
66021;BME280;52789;59.980;30.346;2023-01-05T01:35:21;101146.78;;;-8.74;98.25
66021;BME280;52789;59.980;30.346;2023-01-05T01:37:47;101147.50;;;-8.67;97.87
66021;BME280;52789;59.980;30.346;2023-01-05T01:40:12;101144.16;;;-8.72;97.67
66021;BME280;52789;59.980;30.346;2023-01-05T01:42:38;101156.97;;;-8.68;97.93
66021;BME280;52789;59.980;30.346;2023-01-05T01:47:49;101137.16;;;-8.67;97.73
66021;BME280;52789;59.980;30.346;2023-01-05T01:50:20;101140.72;;;-8.73;98.10
66021;BME280;52789;59.980;30.346;2023-01-05T01:52:48;101139.16;;;-8.80;97.98
66021;BME280;52789;59.980;30.346;2023-01-05T01:55:15;101151.13;;;-8.76;97.86
66021;BME280;52789;59.980;30.346;2023-01-05T01:57:43;101134.88;;;-8.81;98.42
66021;BME280;52789;59.980;30.346;2023-01-05T02:00:10;101140.59;;;-8.65;98.67
66021;BME280;52789;59.980;30.346;2023-01-05T02:02:39;101146.31;;;-8.53;98.54
66021;BME280;52789;59.980;30.346;2023-01-05T02:05:09;101144.38;;;-8.43;98.05
66021;BME280;52789;59.980;30.346;2023-01-05T02:07:41;101147.97;;;-8.49;97.95
66021;BME280;52789;59.980;30.346;2023-01-05T02:10:08;101126.66;;;-8.58;98.28
66021;BME280;52789;59.980;30.346;2023-01-05T02:15:29;101142.28;;;-8.64;98.30
66021;BME280;52789;59.980;30.346;2023-01-05T02:18:13;101130.31;;;-8.70;98.68
66021;BME280;52789;59.980;30.346;2023-01-05T02:23:53;101134.50;;;-8.63;98.32
66021;BME280;52789;59.980;30.346;2023-01-05T02:34:51;101147.63;;;-8.73;98.45
66021;BME280;52789;59.980;30.346;2023-01-05T02:37:34;101136.56;;;-8.80;98.71
66021;BME280;52789;59.980;30.346;2023-01-05T02:40:28;101122.91;;;-8.85;98.36
66021;BME280;52789;59.980;30.346;2023-01-05T02:42:57;101133.97;;;-8.79;98.50
66021;BME280;52789;59.980;30.346;2023-01-05T02:45:23;101127.91;;;-8.78;98.56
66021;BME280;52789;59.980;30.346;2023-01-05T02:47:49;101128.00;;;-8.82;98.67
66021;BME280;52789;59.980;30.346;2023-01-05T02:55:28;101142.28;;;-8.64;97.62
66021;BME280;52789;59.980;30.346;2023-01-05T02:58:13;101139.72;;;-8.64;97.39
66021;BME280;52789;59.980;30.346;2023-01-05T03:00:44;101138.06;;;-8.70;97.35
66021;BME280;52789;59.980;30.346;2023-01-05T03:03:18;101138.22;;;-8.76;97.15
66021;BME280;52789;59.980;30.346;2023-01-05T03:05:53;101145.06;;;-8.75;97.56
66021;BME280;52789;59.980;30.346;2023-01-05T03:08:22;101146.03;;;-8.79;97.88
66021;BME280;52789;59.980;30.346;2023-01-05T03:10:58;101131.50;;;-8.85;97.84
66021;BME280;52789;59.980;30.346;2023-01-05T03:13:47;101131.44;;;-8.82;98.15
66021;BME280;52789;59.980;30.346;2023-01-05T03:16:28;101142.53;;;-8.77;97.65
66021;BME280;52789;59.980;30.346;2023-01-05T03:18:56;101142.50;;;-8.75;97.42
66021;BME280;52789;59.980;30.346;2023-01-05T03:21:42;101142.31;;;-8.66;97.46
66021;BME280;52789;59.980;30.346;2023-01-05T03:24:28;101144.41;;;-8.45;96.13
66021;BME280;52789;59.980;30.346;2023-01-05T03:27:13;101137.41;;;-8.39;95.59
66021;BME280;52789;59.980;30.346;2023-01-05T03:29:58;101151.50;;;-8.16;95.45
66021;BME280;52789;59.980;30.346;2023-01-05T03:32:50;101143.63;;;-8.11;95.20
66021;BME280;52789;59.980;30.346;2023-01-05T03:35:40;101141.81;;;-8.06;95.25
66021;BME280;52789;59.980;30.346;2023-01-05T03:38:17;101133.97;;;-8.03;94.77
66021;BME280;52789;59.980;30.346;2023-01-05T03:40:45;101140.94;;;-8.05;94.98
66021;BME280;52789;59.980;30.346;2023-01-05T03:43:15;101144.50;;;-8.12;95.76
66021;BME280;52789;59.980;30.346;2023-01-05T03:45:44;101143.78;;;-8.17;96.91
66021;BME280;52789;59.980;30.346;2023-01-05T03:48:10;101120.00;;;-8.31;96.78
66021;BME280;52789;59.980;30.346;2023-01-05T03:50:36;101141.16;;;-8.16;97.36
66021;BME280;52789;59.980;30.346;2023-01-05T03:53:02;101137.50;;;-8.05;97.00
66021;BME280;52789;59.980;30.346;2023-01-05T03:55:30;101140.22;;;-8.13;96.68
66021;BME280;52789;59.980;30.346;2023-01-05T03:57:55;101122.31;;;-8.21;96.88
66021;BME280;52789;59.980;30.346;2023-01-05T04:00:21;101154.81;;;-8.09;96.32
66021;BME280;52789;59.980;30.346;2023-01-05T04:02:46;101140.44;;;-8.22;96.66
66021;BME280;52789;59.980;30.346;2023-01-05T04:05:12;101146.69;;;-8.31;96.91
66021;BME280;52789;59.980;30.346;2023-01-05T04:07:37;101140.84;;;-8.39;97.12
66021;BME280;52789;59.980;30.346;2023-01-05T04:10:03;101142.59;;;-8.39;97.10
66021;BME280;52789;59.980;30.346;2023-01-05T04:12:29;101151.19;;;-8.37;96.28
66021;BME280;52789;59.980;30.346;2023-01-05T04:14:56;101138.22;;;-8.36;95.86
66021;BME280;52789;59.980;30.346;2023-01-05T04:17:25;101127.97;;;-8.40;96.00
66021;BME280;52789;59.980;30.346;2023-01-05T04:19:50;101132.28;;;-8.41;96.00
66021;BME280;52789;59.980;30.346;2023-01-05T04:22:17;101143.59;;;-8.47;95.32
66021;BME280;52789;59.980;30.346;2023-01-05T04:24:42;101106.13;;;-8.64;94.60
66021;BME280;52789;59.980;30.346;2023-01-05T04:27:08;101118.97;;;-8.61;94.22
66021;BME280;52789;59.980;30.346;2023-01-05T04:29:33;101129.34;;;-8.63;94.06
66021;BME280;52789;59.980;30.346;2023-01-05T04:31:59;101132.09;;;-8.72;93.54
66021;BME280;52789;59.980;30.346;2023-01-05T04:34:24;101102.34;;;-8.88;93.61
66021;BME280;52789;59.980;30.346;2023-01-05T04:36:50;101109.13;;;-8.84;92.88
66021;BME280;52789;59.980;30.346;2023-01-05T04:39:15;101097.25;;;-8.91;92.72
66021;BME280;52789;59.980;30.346;2023-01-05T04:41:41;101124.44;;;-8.77;92.73
66021;BME280;52789;59.980;30.346;2023-01-05T04:44:06;101116.94;;;-8.87;92.14
66021;BME280;52789;59.980;30.346;2023-01-05T04:46:32;101129.78;;;-8.84;92.70
66021;BME280;52789;59.980;30.346;2023-01-05T04:48:57;101111.03;;;-8.92;92.50
66021;BME280;52789;59.980;30.346;2023-01-05T04:51:23;101123.00;;;-8.88;91.69
66021;BME280;52789;59.980;30.346;2023-01-05T04:53:48;101114.50;;;-8.93;92.38
66021;BME280;52789;59.980;30.346;2023-01-05T04:56:20;101121.28;;;-8.89;92.54
66021;BME280;52789;59.980;30.346;2023-01-05T04:58:45;101124.69;;;-8.87;92.35
66021;BME280;52789;59.980;30.346;2023-01-05T05:01:11;101112.81;;;-8.96;92.21
66021;BME280;52789;59.980;30.346;2023-01-05T05:03:36;101095.91;;;-9.11;92.95
66021;BME280;52789;59.980;30.346;2023-01-05T05:06:02;101116.28;;;-8.98;92.82
66021;BME280;52789;59.980;30.346;2023-01-05T05:08:27;101113.81;;;-9.03;93.23
66021;BME280;52789;59.980;30.346;2023-01-05T05:10:53;101112.09;;;-9.04;93.54
66021;BME280;52789;59.980;30.346;2023-01-05T05:13:18;101108.75;;;-9.08;93.72
66021;BME280;52789;59.980;30.346;2023-01-05T05:15:45;101111.25;;;-9.04;94.15
66021;BME280;52789;59.980;30.346;2023-01-05T05:18:10;101123.28;;;-9.03;94.71
66021;BME280;52789;59.980;30.346;2023-01-05T05:20:37;101107.00;;;-9.07;94.30
66021;BME280;52789;59.980;30.346;2023-01-05T05:23:05;101105.31;;;-9.08;94.99
66021;BME280;52789;59.980;30.346;2023-01-05T05:25:31;101104.47;;;-9.09;95.39
66021;BME280;52789;59.980;30.346;2023-01-05T05:27:56;101117.22;;;-9.02;95.37
66021;BME280;52789;59.980;30.346;2023-01-05T05:30:22;101124.03;;;-8.98;95.69
66021;BME280;52789;59.980;30.346;2023-01-05T05:32:47;101124.81;;;-8.93;95.79
66021;BME280;52789;59.980;30.346;2023-01-05T05:35:13;101112.72;;;-8.91;95.73
66021;BME280;52789;59.980;30.346;2023-01-05T05:37:38;101129.72;;;-8.81;95.72
66021;BME280;52789;59.980;30.346;2023-01-05T05:40:04;101117.63;;;-8.79;95.84
66021;BME280;52789;59.980;30.346;2023-01-05T05:42:30;101122.66;;;-8.73;95.71
66021;BME280;52789;59.980;30.346;2023-01-05T05:44:55;101119.13;;;-8.69;96.17
66021;BME280;52789;59.980;30.346;2023-01-05T05:47:21;101130.97;;;-8.59;96.20
66021;BME280;52789;59.980;30.346;2023-01-05T05:49:46;101128.34;;;-8.57;96.04
66021;BME280;52789;59.980;30.346;2023-01-05T05:52:12;101123.13;;;-8.54;96.78
66021;BME280;52789;59.980;30.346;2023-01-05T05:54:37;101126.19;;;-8.38;96.94
66021;BME280;52789;59.980;30.346;2023-01-05T05:57:04;101126.78;;;-8.27;96.48
66021;BME280;52789;59.980;30.346;2023-01-05T05:59:29;101119.09;;;-8.29;96.89
66021;BME280;52789;59.980;30.346;2023-01-05T06:01:55;101130.81;;;-8.16;96.36
66021;BME280;52789;59.980;30.346;2023-01-05T06:04:20;101126.56;;;-8.18;95.37
66021;BME280;52789;59.980;30.346;2023-01-05T06:06:46;101123.09;;;-8.17;95.43
66021;BME280;52789;59.980;30.346;2023-01-05T06:09:11;101107.19;;;-8.34;94.85
66021;BME280;52789;59.980;30.346;2023-01-05T06:11:37;101119.84;;;-8.25;95.58
66021;BME280;52789;59.980;30.346;2023-01-05T06:14:02;101127.41;;;-8.18;95.46
66021;BME280;52789;59.980;30.346;2023-01-05T06:16:30;101136.75;;;-8.12;95.56
66021;BME280;52789;59.980;30.346;2023-01-05T06:18:56;101127.34;;;-8.15;94.84
66021;BME280;52789;59.980;30.346;2023-01-05T06:21:21;101129.13;;;-8.17;95.35
66021;BME280;52789;59.980;30.346;2023-01-05T06:23:47;101126.56;;;-8.18;95.27
66021;BME280;52789;59.980;30.346;2023-01-05T06:26:12;101129.19;;;-8.20;95.04
66021;BME280;52789;59.980;30.346;2023-01-05T06:28:38;101132.72;;;-8.24;94.28
66021;BME280;52789;59.980;30.346;2023-01-05T06:31:03;101094.59;;;-8.50;95.36
66021;BME280;52789;59.980;30.346;2023-01-05T06:33:29;101145.47;;;-8.16;95.11
66021;BME280;52789;59.980;30.346;2023-01-05T06:35:54;101136.91;;;-8.18;95.13
66021;BME280;52789;59.980;30.346;2023-01-05T06:38:22;101137.06;;;-8.24;95.08
66021;BME280;52789;59.980;30.346;2023-01-05T06:40:48;101135.44;;;-8.28;94.93
66021;BME280;52789;59.980;30.346;2023-01-05T06:43:13;101128.69;;;-8.34;95.02
66021;BME280;52789;59.980;30.346;2023-01-05T06:45:39;101142.25;;;-8.26;95.57
66021;BME280;52789;59.980;30.346;2023-01-05T06:48:04;101138.91;;;-8.29;95.07
66021;BME280;52789;59.980;30.346;2023-01-05T06:50:30;101128.63;;;-8.32;94.87
66021;BME280;52789;59.980;30.346;2023-01-05T06:52:57;101144.94;;;-8.30;95.24
66021;BME280;52789;59.980;30.346;2023-01-05T06:55:22;101144.81;;;-8.24;95.37
66021;BME280;52789;59.980;30.346;2023-01-05T06:57:48;101131.97;;;-8.27;95.86
66021;BME280;52789;59.980;30.346;2023-01-05T07:00:14;101138.63;;;-8.19;95.28
66021;BME280;52789;59.980;30.346;2023-01-05T07:02:40;101142.00;;;-8.15;94.65
66021;BME280;52789;59.980;30.346;2023-01-05T07:05:06;101146.22;;;-8.11;94.57
66021;BME280;52789;59.980;30.346;2023-01-05T07:07:32;101132.56;;;-8.16;94.32
66021;BME280;52789;59.980;30.346;2023-01-05T07:09:58;101141.81;;;-8.06;94.08
66021;BME280;52789;59.980;30.346;2023-01-05T07:12:24;101160.59;;;-7.99;93.90
66021;BME280;52789;59.980;30.346;2023-01-05T07:14:49;101152.94;;;-8.02;94.50
66021;BME280;52789;59.980;30.346;2023-01-05T07:17:15;101160.63;;;-8.01;94.71
66021;BME280;52789;59.980;30.346;2023-01-05T07:19:41;101157.31;;;-8.06;94.43
66021;BME280;52789;59.980;30.346;2023-01-05T07:22:07;101166.88;;;-8.11;93.87
66021;BME280;52789;59.980;30.346;2023-01-05T07:24:32;101168.72;;;-8.16;94.49
66021;BME280;52789;59.980;30.346;2023-01-05T07:26:58;101149.13;;;-8.25;94.41
66021;BME280;52789;59.980;30.346;2023-01-05T07:29:24;101164.44;;;-8.17;94.79
66021;BME280;52789;59.980;30.346;2023-01-05T07:31:50;101178.00;;;-8.06;94.49
66021;BME280;52789;59.980;30.346;2023-01-05T07:34:21;101174.63;;;-8.11;93.90
66021;BME280;52789;59.980;30.346;2023-01-05T07:36:47;101172.94;;;-8.12;93.77
66021;BME280;52789;59.980;30.346;2023-01-05T07:39:13;101183.34;;;-8.15;93.77
66021;BME280;52789;59.980;30.346;2023-01-05T07:41:38;101184.38;;;-8.22;93.35
66021;BME280;52789;59.980;30.346;2023-01-05T07:44:04;101187.75;;;-8.19;94.54
66021;BME280;52789;59.980;30.346;2023-01-05T07:46:30;101185.22;;;-8.22;93.37
66021;BME280;52789;59.980;30.346;2023-01-05T07:48:56;101185.28;;;-8.25;93.22
66021;BME280;52789;59.980;30.346;2023-01-05T07:51:23;101193.88;;;-8.23;93.54
66021;BME280;52789;59.980;30.346;2023-01-05T07:53:48;101199.69;;;-8.15;93.62
66021;BME280;52789;59.980;30.346;2023-01-05T07:56:14;101208.41;;;-8.19;93.14
66021;BME280;52789;59.980;30.346;2023-01-05T07:58:43;101209.47;;;-8.27;91.44
66021;BME280;52789;59.980;30.346;2023-01-05T08:01:11;101188.53;;;-8.54;92.61
66021;BME280;52789;59.980;30.346;2023-01-05T08:03:38;101205.56;;;-8.45;94.72
66021;BME280;52789;59.980;30.346;2023-01-05T08:06:08;101216.69;;;-8.41;93.98
66021;BME280;52789;59.980;30.346;2023-01-05T08:08:35;101209.84;;;-8.44;94.77
66021;BME280;52789;59.980;30.346;2023-01-05T08:11:06;101224.22;;;-8.32;93.40
66021;BME280;52789;59.980;30.346;2023-01-05T08:13:33;101223.34;;;-8.31;92.78
66021;BME280;52789;59.980;30.346;2023-01-05T08:16:17;101226.81;;;-8.32;92.22
66021;BME280;52789;59.980;30.346;2023-01-05T08:18:43;101230.22;;;-8.30;91.92
66021;BME280;52789;59.980;30.346;2023-01-05T08:21:09;101222.31;;;-8.24;90.82
66021;BME280;52789;59.980;30.346;2023-01-05T08:23:35;101228.09;;;-8.13;90.17
66021;BME280;52789;59.980;30.346;2023-01-05T08:26:06;101217.16;;;-8.24;89.33
66021;BME280;52789;59.980;30.346;2023-01-05T08:28:34;101222.59;;;-8.35;89.20
66021;BME280;52789;59.980;30.346;2023-01-05T08:31:04;101233.91;;;-8.42;88.89
66021;BME280;52789;59.980;30.346;2023-01-05T08:33:31;101234.06;;;-8.50;89.24
66021;BME280;52789;59.980;30.346;2023-01-05T08:35:57;101241.78;;;-8.48;89.01
66021;BME280;52789;59.980;30.346;2023-01-05T08:38:23;101242.06;;;-8.62;87.29
66021;BME280;52789;59.980;30.346;2023-01-05T08:40:48;101236.44;;;-8.82;88.18
66021;BME280;52789;59.980;30.346;2023-01-05T08:43:14;101265.72;;;-8.83;88.38
66021;BME280;52789;59.980;30.346;2023-01-05T08:45:39;101250.41;;;-8.92;88.75
66021;BME280;52789;59.980;30.346;2023-01-05T08:48:05;101259.00;;;-8.92;87.98
66021;BME280;52789;59.980;30.346;2023-01-05T08:50:31;101245.22;;;-8.92;88.03
66021;BME280;52789;59.980;30.346;2023-01-05T08:52:57;101261.22;;;-8.73;88.19
66021;BME280;52789;59.980;30.346;2023-01-05T08:55:22;101246.50;;;-8.70;88.13
66021;BME280;52789;59.980;30.346;2023-01-05T08:57:48;101254.13;;;-8.62;88.69
66021;BME280;52789;59.980;30.346;2023-01-05T09:00:14;101271.00;;;-8.46;89.25
66021;BME280;52789;59.980;30.346;2023-01-05T09:02:46;101263.88;;;-8.33;89.61
66021;BME280;52789;59.980;30.346;2023-01-05T09:05:11;101276.50;;;-8.21;89.93
66021;BME280;52789;59.980;30.346;2023-01-05T09:07:37;101283.31;;;-8.17;89.84
66021;BME280;52789;59.980;30.346;2023-01-05T09:10:03;101282.56;;;-8.22;90.24
66021;BME280;52789;59.980;30.346;2023-01-05T09:12:29;101283.50;;;-8.26;90.02
66021;BME280;52789;59.980;30.346;2023-01-05T09:14:54;101275.97;;;-8.34;89.55
66021;BME280;52789;59.980;30.346;2023-01-05T09:17:23;101281.13;;;-8.34;90.13
66021;BME280;52789;59.980;30.346;2023-01-05T09:19:48;101274.44;;;-8.46;89.93
66021;BME280;52789;59.980;30.346;2023-01-05T09:22:13;101286.47;;;-8.45;90.83
66021;BME280;52789;59.980;30.346;2023-01-05T09:24:39;101288.94;;;-8.38;90.97
66021;BME280;52789;59.980;30.346;2023-01-05T09:27:04;101277.88;;;-8.45;90.87
66021;BME280;52789;59.980;30.346;2023-01-05T09:29:32;101273.50;;;-8.41;91.21
66021;BME280;52789;59.980;30.346;2023-01-05T09:31:57;101271.00;;;-8.46;90.85
66021;BME280;52789;59.980;30.346;2023-01-05T09:34:23;101291.34;;;-8.31;91.19
66021;BME280;52789;59.980;30.346;2023-01-05T09:36:48;101288.75;;;-8.29;90.16
66021;BME280;52789;59.980;30.346;2023-01-05T09:39:14;101298.81;;;-8.17;89.79
66021;BME280;52789;59.980;30.346;2023-01-05T09:41:51;101302.97;;;-8.08;89.82
66021;BME280;52789;59.980;30.346;2023-01-05T09:44:32;101302.19;;;-8.14;88.79
66021;BME280;52789;59.980;30.346;2023-01-05T09:47:01;101314.16;;;-8.08;88.26
66021;BME280;52789;59.980;30.346;2023-01-05T09:49:28;101319.63;;;-8.23;87.43
66021;BME280;52789;59.980;30.346;2023-01-05T09:52:01;101317.69;;;-8.55;87.57
66021;BME280;52789;59.980;30.346;2023-01-05T09:54:29;101328.31;;;-8.72;87.69
66021;BME280;52789;59.980;30.346;2023-01-05T09:56:58;101331.91;;;-8.81;87.82
66021;BME280;52789;59.980;30.346;2023-01-05T09:59:28;101329.34;;;-8.82;88.33
66021;BME280;52789;59.980;30.346;2023-01-05T10:01:59;101334.75;;;-8.97;87.91
66021;BME280;52789;59.980;30.346;2023-01-05T10:04:28;101325.47;;;-9.06;90.23
66021;BME280;52789;59.980;30.346;2023-01-05T10:06:59;101335.75;;;-9.04;90.18
66021;BME280;52789;59.980;30.346;2023-01-05T10:09:32;101336.72;;;-9.12;89.95
66021;BME280;52789;59.980;30.346;2023-01-05T10:12:04;101340.09;;;-9.07;90.55
66021;BME280;52789;59.980;30.346;2023-01-05T10:15:00;101313.69;;;-9.21;90.50
66021;BME280;52789;59.980;30.346;2023-01-05T10:17:36;101364.16;;;-9.06;89.24
66021;BME280;52789;59.980;30.346;2023-01-05T10:25:20;101340.34;;;-9.22;88.63
66021;BME280;52789;59.980;30.346;2023-01-05T10:27:56;101343.66;;;-9.14;88.68
66021;BME280;52789;59.980;30.346;2023-01-05T10:36:12;101364.00;;;-8.95;88.30
66021;BME280;52789;59.980;30.346;2023-01-05T10:39:01;101343.41;;;-9.00;88.76
66021;BME280;52789;59.980;30.346;2023-01-05T10:41:37;101352.00;;;-8.99;89.33
66021;BME280;52789;59.980;30.346;2023-01-05T10:46:46;101343.34;;;-8.97;89.82
66021;BME280;52789;59.980;30.346;2023-01-05T10:49:23;101349.34;;;-8.93;89.62
66021;BME280;52789;59.980;30.346;2023-01-05T10:51:50;101356.00;;;-8.80;89.22
66021;BME280;52789;59.980;30.346;2023-01-05T10:57:37;101350.59;;;-8.68;89.15
66021;BME280;52789;59.980;30.346;2023-01-05T11:00:10;101350.56;;;-8.63;88.85
66021;BME280;52789;59.980;30.346;2023-01-05T11:03:02;101349.09;;;-8.80;87.54
66021;BME280;52789;59.980;30.346;2023-01-05T11:05:35;101356.75;;;-8.75;87.92
66021;BME280;52789;59.980;30.346;2023-01-05T11:08:12;101353.41;;;-8.80;87.96
66021;BME280;52789;59.980;30.346;2023-01-05T11:10:59;101364.25;;;-8.60;88.33
66021;BME280;52789;59.980;30.346;2023-01-05T11:13:37;101365.88;;;-8.54;87.57
66021;BME280;52789;59.980;30.346;2023-01-05T11:16:13;101368.31;;;-8.47;87.30
66021;BME280;52789;59.980;30.346;2023-01-05T11:21:57;101368.56;;;-8.60;86.11
66021;BME280;52789;59.980;30.346;2023-01-05T11:23:58;101369.53;;;-8.66;87.08
66021;BME280;52789;59.980;30.346;2023-01-05T11:26:36;101346.31;;;-8.69;87.02
66021;BME280;52789;59.980;30.346;2023-01-05T11:31:46;101370.00;;;-8.44;86.43
66021;BME280;52789;59.980;30.346;2023-01-05T11:36:54;101359.88;;;-8.55;86.43
66021;BME280;52789;59.980;30.346;2023-01-05T11:39:27;101364.50;;;-8.75;86.66
66021;BME280;52789;59.980;30.346;2023-01-05T11:42:30;101372.38;;;-8.81;87.46
66021;BME280;52789;59.980;30.346;2023-01-05T11:45:06;101377.63;;;-8.87;87.88
66021;BME280;52789;59.980;30.346;2023-01-05T11:48:00;101382.06;;;-8.95;87.87
66021;BME280;52789;59.980;30.346;2023-01-05T11:50:33;101386.44;;;-9.00;88.89
66021;BME280;52789;59.980;30.346;2023-01-05T11:53:05;101382.97;;;-8.99;88.91
66021;BME280;52789;59.980;30.346;2023-01-05T11:55:45;101370.91;;;-8.97;88.74
66021;BME280;52789;59.980;30.346;2023-01-05T11:58:14;101383.84;;;-9.00;88.67
66021;BME280;52789;59.980;30.346;2023-01-05T12:03:56;101381.19;;;-8.94;89.43
66021;BME280;52789;59.980;30.346;2023-01-05T12:06:25;101387.16;;;-8.91;89.23
66021;BME280;52789;59.980;30.346;2023-01-05T12:09:06;101390.59;;;-8.90;88.79
66021;BME280;52789;59.980;30.346;2023-01-05T12:14:27;101390.66;;;-8.93;89.10
66021;BME280;52789;59.980;30.346;2023-01-05T12:17:07;101396.69;;;-8.94;88.28
66021;BME280;52789;59.980;30.346;2023-01-05T12:22:27;101402.91;;;-9.08;90.96
66021;BME280;52789;59.980;30.346;2023-01-05T12:33:32;101412.38;;;-9.10;90.91
66021;BME280;52789;59.980;30.346;2023-01-05T12:36:06;101413.94;;;-8.99;90.98
66021;BME280;52789;59.980;30.346;2023-01-05T12:50:00;101418.72;;;-8.75;91.00
66021;BME280;52789;59.980;30.346;2023-01-05T12:52:37;101425.59;;;-8.74;90.90
66021;BME280;52789;59.980;30.346;2023-01-05T12:55:32;101424.16;;;-8.90;90.72
66021;BME280;52789;59.980;30.346;2023-01-05T12:58:12;101430.38;;;-9.05;90.82
66021;BME280;52789;59.980;30.346;2023-01-05T13:00:38;101436.31;;;-9.00;92.04
66021;BME280;52789;59.980;30.346;2023-01-05T13:03:18;101443.03;;;-8.88;92.76
66021;BME280;52789;59.980;30.346;2023-01-05T13:06:03;101435.88;;;-8.71;92.51
66021;BME280;52789;59.980;30.346;2023-01-05T13:08:37;101437.41;;;-8.58;91.99
66021;BME280;52789;59.980;30.346;2023-01-05T13:11:30;101446.94;;;-8.63;91.25
66021;BME280;52789;59.980;30.346;2023-01-05T13:14:07;101445.44;;;-8.78;91.88
66021;BME280;52789;59.980;30.346;2023-01-05T13:16:42;101447.25;;;-8.83;92.09
66021;BME280;52789;59.980;30.346;2023-01-05T13:19:16;101458.28;;;-8.73;92.10
66021;BME280;52789;59.980;30.346;2023-01-05T13:21:44;101451.31;;;-8.68;91.14
66021;BME280;52789;59.980;30.346;2023-01-05T13:24:15;101454.72;;;-8.64;90.73
66021;BME280;52789;59.980;30.346;2023-01-05T13:26:47;101458.22;;;-8.70;91.62
66021;BME280;52789;59.980;30.346;2023-01-05T13:29:30;101445.41;;;-8.75;91.70
66021;BME280;52789;59.980;30.346;2023-01-05T13:35:25;101466.09;;;-8.78;93.02
66021;BME280;52789;59.980;30.346;2023-01-05T13:45:57;101462.78;;;-8.86;93.38
66021;BME280;52789;59.980;30.346;2023-01-05T13:53:57;101465.25;;;-8.78;92.46
66021;BME280;52789;59.980;30.346;2023-01-05T13:56:28;101463.44;;;-8.73;93.29
66021;BME280;52789;59.980;30.346;2023-01-05T13:59:17;101476.22;;;-8.62;93.45
66021;BME280;52789;59.980;30.346;2023-01-05T14:01:46;101486.59;;;-8.68;93.16
66021;BME280;52789;59.980;30.346;2023-01-05T14:04:23;101483.16;;;-8.67;93.91
66021;BME280;52789;59.980;30.346;2023-01-05T14:06:53;101490.84;;;-8.63;93.88
66021;BME280;52789;59.980;30.346;2023-01-05T14:09:38;101487.38;;;-8.62;93.50
66021;BME280;52789;59.980;30.346;2023-01-05T14:15:52;101493.16;;;-8.46;93.15
66021;BME280;52789;59.980;30.346;2023-01-05T14:20:46;101496.69;;;-8.52;92.86
66021;BME280;52789;59.980;30.346;2023-01-05T14:25:57;101501.22;;;-8.67;93.89
66021;BME280;52789;59.980;30.346;2023-01-05T14:33:33;101508.94;;;-8.64;94.47
66021;BME280;52789;59.980;30.346;2023-01-05T14:36:38;101512.28;;;-8.58;94.99
66021;BME280;52789;59.980;30.346;2023-01-05T14:39:24;101513.22;;;-8.62;94.19
66021;BME280;52789;59.980;30.346;2023-01-05T14:44:29;101520.03;;;-8.58;93.83
66021;BME280;52789;59.980;30.346;2023-01-05T14:46:56;101522.72;;;-8.64;93.36